Terminal Aerodrome Forecast
Issued by NWS

Home | Current Version | Previous Version | Text Only | Print | Product List | Glossary On
Versions: 1 2 3 4 5 6 7 8 9 10 11 12 13 14 15 16 17 18 19
901
FTUS44 KLIX 242320
TAFGPT
TAF
KGPT 242320Z 2500/2524 13014G22KT P6SM BKN040
     FM250500 14014G24KT P6SM BKN025
     FM251100 15012G20KT P6SM BKN015
     FM251200 16012G20KT P6SM VCTS BKN025CB=

USA.gov is the U.S. government's official web portal to all federal, state and local government web resources and services.